Etusivu
METAR-TAF:

METAR-TAF

Lentoasemat :

Garner Field

Uvalde, Texas, Yhdysvallat

Leveyspiiri: 29-12-40N, Pituuspiiri: 099-44-36W, korkeus merenpinnasta: 287 m

Tämänhetkinen sää

Tämä raportti tehtiin 44 minuuttia sitten, kello 07.15 UTC
tyyntä
Lämpötila 18°C
Kosteus 100%
Ilmanpaine 1019 hPa
Näkyvyys: 6.4 km
Hajanaisia pilviä 1800 ft:n korkeudessa
Pilvistä 4400 ft:n korkeudessa
utua

METAR: KUVA 070715Z AUTO 00000KT 4SM BR SCT018 OVC044 18/18 A3009 RMK AO2 T01820182

Aika: 01:59 (07:59 UTC)


TAF: puuttuu

Säähavainnot ja -ennusteet yli 4000 lentoasemalta (METAR- ja TAF-raportit).

Käytössä olevat sääasemat on merkitty karttaan keltaisilla ja punaisilla pisteillä.

Aseta hiiri pisteen päälle nähdäksesi sääaseman nimen.

Klikkaa sitten nähdäksesi säähavainnot ja -ennusteet.

Kartan vaihtaminen: klikkaa mustalla rastilla varustettuja vihreitä pisteitä, niin voit zoomata sisään; viivalla varustettua vihreää pistettä, niin voit zoomata ulos tai vihreitä nuolia, niin pääset viereisille kartoille.


METAR-TAF: